createdAt,value
2022-12-25T00:01:44.276Z,8.23
2022-12-25T00:04:11.617Z,8.27
2022-12-25T00:06:39.015Z,6.18
2022-12-25T00:09:06.359Z,7.55
2022-12-25T00:11:33.608Z,6.15
2022-12-25T00:14:00.777Z,7.32
2022-12-25T00:16:28.075Z,6.60
2022-12-25T00:18:56.348Z,5.95
2022-12-25T00:21:23.672Z,5.65
2022-12-25T00:23:58.314Z,6.78
2022-12-25T00:26:26.942Z,6.70
2022-12-25T00:28:56.476Z,6.40
2022-12-25T00:33:52.560Z,6.85
2022-12-25T00:36:22.449Z,5.55
2022-12-25T00:38:49.733Z,6.10
2022-12-25T00:41:39.257Z,7.32
2022-12-25T00:46:34.744Z,6.22
2022-12-25T00:49:02.483Z,5.35
2022-12-25T00:51:29.670Z,7.10
2022-12-25T00:53:56.921Z,6.40
2022-12-25T00:56:24.963Z,6.57
2022-12-25T00:58:52.951Z,7.30
2022-12-25T01:01:20.374Z,6.60
2022-12-25T01:03:47.758Z,6.80
2022-12-25T01:06:14.852Z,6.13
2022-12-25T01:09:03.015Z,6.43
2022-12-25T01:11:31.687Z,6.70
2022-12-25T01:13:59.014Z,6.13
2022-12-25T01:16:26.697Z,6.60
2022-12-25T01:18:54.026Z,8.30
2022-12-25T01:21:22.236Z,5.22
2022-12-25T01:23:51.917Z,5.85
2022-12-25T01:26:23.872Z,6.97
2022-12-25T01:28:52.036Z,6.85
2022-12-25T01:31:23.257Z,6.65
2022-12-25T01:33:50.982Z,5.75
2022-12-25T01:36:22.694Z,6.60
2022-12-25T01:38:51.963Z,6.93
2022-12-25T01:41:22.717Z,6.60
2022-12-25T01:44:19.205Z,5.97
2022-12-25T01:46:46.311Z,6.22
2022-12-25T01:49:24.536Z,7.82
2022-12-25T01:52:02.077Z,5.82
2022-12-25T01:54:37.520Z,6.28
2022-12-25T01:57:11.451Z,6.72
2022-12-25T01:59:39.142Z,6.75
2022-12-25T02:02:06.791Z,6.47
2022-12-25T02:05:11.591Z,7.03
2022-12-25T02:07:40.693Z,6.55
2022-12-25T02:10:10.994Z,7.22
2022-12-25T02:12:40.665Z,6.53
2022-12-25T02:15:21.089Z,7.03
2022-12-25T02:18:20.027Z,5.82
2022-12-25T02:21:16.078Z,6.15
2022-12-25T02:24:04.924Z,7.03
2022-12-25T02:26:43.842Z,7.25
2022-12-25T02:29:49.285Z,6.15
2022-12-25T02:32:30.631Z,6.82
2022-12-25T02:35:30.620Z,8.07
2022-12-25T02:38:17.935Z,7.22
2022-12-25T02:40:57.249Z,6.75
2022-12-25T02:43:56.639Z,6.70
2022-12-25T02:49:39.767Z,8.23
2022-12-25T02:52:45.454Z,7.68
2022-12-25T02:55:42.452Z,7.97
2022-12-25T02:58:35.951Z,8.20
2022-12-25T03:01:39.102Z,8.18
2022-12-25T03:04:33.175Z,8.73
2022-12-25T03:07:15.638Z,9.52
2022-12-25T03:10:20.926Z,10.30
2022-12-25T03:13:04.151Z,8.95
2022-12-25T03:15:52.522Z,9.63
2022-12-25T03:18:23.748Z,9.40
2022-12-25T03:21:11.304Z,9.63
2022-12-25T03:24:02.148Z,9.63
2022-12-25T03:26:48.242Z,9.55
2022-12-25T03:29:35.385Z,11.45
2022-12-25T03:32:19.529Z,11.52
2022-12-25T03:35:22.925Z,10.35
2022-12-25T03:39:37.837Z,11.15
2022-12-25T03:42:25.184Z,9.82
2022-12-25T03:45:39.636Z,8.73
2022-12-25T03:48:27.584Z,7.53
2022-12-25T03:51:27.868Z,7.82
2022-12-25T03:54:18.854Z,7.87
2022-12-25T03:57:05.311Z,7.38
2022-12-25T03:59:51.330Z,5.95
2022-12-25T04:02:37.447Z,7.45
2022-12-25T04:05:23.836Z,5.68
2022-12-25T04:08:09.645Z,7.38
2022-12-25T04:10:55.565Z,6.78
2022-12-25T04:13:41.490Z,6.22
2022-12-25T04:16:27.470Z,6.22
2022-12-25T04:19:13.120Z,6.65
2022-12-25T04:21:59.058Z,6.43
2022-12-25T04:24:44.938Z,5.25
2022-12-25T04:27:31.004Z,4.57
2022-12-25T04:30:16.867Z,5.95
2022-12-25T04:33:02.967Z,5.82
2022-12-25T04:35:49.027Z,5.75
2022-12-25T04:38:20.189Z,5.88
2022-12-25T04:40:47.395Z,6.00
2022-12-25T04:43:14.623Z,4.85
2022-12-25T04:45:41.958Z,5.95
2022-12-25T04:48:09.070Z,6.32
2022-12-25T04:50:36.234Z,5.93
2022-12-25T04:53:03.373Z,4.90
2022-12-25T04:55:30.498Z,6.07
2022-12-25T04:57:57.632Z,5.28
2022-12-25T05:00:24.748Z,5.60
2022-12-25T05:02:52.054Z,6.30
2022-12-25T05:05:19.313Z,10.15
2022-12-25T05:07:46.442Z,5.30
2022-12-25T05:10:14.577Z,7.00
2022-12-25T05:12:41.844Z,6.60
2022-12-25T05:15:09.788Z,6.03
2022-12-25T05:17:37.083Z,6.97
2022-12-25T05:20:05.937Z,6.03
2022-12-25T05:22:33.306Z,7.40
2022-12-25T05:25:00.462Z,4.93
2022-12-25T05:27:27.834Z,7.55
2022-12-25T05:29:55.070Z,7.20
2022-12-25T05:32:22.219Z,5.97
2022-12-25T05:34:49.396Z,5.95
2022-12-25T05:37:16.488Z,6.22
2022-12-25T05:39:43.605Z,5.80
2022-12-25T05:42:10.782Z,7.72
2022-12-25T05:44:37.992Z,9.50
2022-12-25T05:47:05.189Z,10.85
2022-12-25T05:49:32.372Z,6.10
2022-12-25T05:51:59.454Z,8.75
2022-12-25T05:54:26.765Z,8.50
2022-12-25T05:56:53.953Z,8.82
2022-12-25T05:59:21.157Z,8.85
2022-12-25T06:01:48.443Z,9.30
2022-12-25T06:04:15.847Z,11.07
2022-12-25T06:06:43.525Z,9.27
2022-12-25T06:09:12.836Z,8.88
2022-12-25T06:11:40.807Z,6.47
2022-12-25T06:14:12.901Z,5.40
2022-12-25T06:16:40.279Z,5.47
2022-12-25T06:19:07.482Z,4.60
2022-12-25T06:21:34.771Z,5.38
2022-12-25T06:24:02.227Z,6.13
2022-12-25T06:26:29.629Z,7.82
2022-12-25T06:28:56.786Z,6.15
2022-12-25T06:31:24.598Z,5.30
2022-12-25T06:33:51.978Z,7.50
2022-12-25T06:36:25.712Z,8.90
2022-12-25T06:38:53.759Z,8.82
2022-12-25T06:41:27.162Z,7.50
2022-12-25T06:43:57.843Z,8.48
2022-12-25T06:46:28.223Z,9.02
2022-12-25T06:48:57.200Z,9.15
2022-12-25T06:51:28.465Z,9.15
2022-12-25T06:53:57.572Z,7.85
2022-12-25T06:56:27.645Z,8.98
2022-12-25T06:58:58.578Z,8.80
2022-12-25T07:01:44.391Z,9.93
2022-12-25T07:04:19.289Z,9.82
2022-12-25T07:06:46.729Z,10.80
2022-12-25T07:09:13.891Z,15.18
2022-12-25T07:11:41.021Z,15.43
2022-12-25T07:14:23.244Z,13.80
2022-12-25T07:16:51.443Z,12.63
2022-12-25T07:19:18.727Z,12.63
2022-12-25T07:21:46.682Z,10.98
2022-12-25T07:24:21.745Z,8.23
2022-12-25T07:26:50.339Z,21.00
2022-12-25T07:29:19.077Z,26.57
2022-12-25T07:31:47.085Z,33.67
2022-12-25T07:34:16.362Z,25.58
2022-12-25T07:36:43.559Z,22.48
2022-12-25T07:39:11.758Z,17.92
2022-12-25T07:41:39.656Z,18.92
2022-12-25T07:44:15.382Z,24.17
2022-12-25T07:46:42.945Z,28.33
2022-12-25T07:49:10.947Z,24.50
2022-12-25T07:51:38.049Z,25.08
2022-12-25T07:54:05.360Z,19.45
2022-12-25T07:56:32.618Z,14.30
2022-12-25T07:58:59.754Z,15.48
2022-12-25T08:01:27.703Z,10.98
2022-12-25T08:04:01.038Z,8.30
2022-12-25T08:06:33.857Z,7.95
2022-12-25T08:09:11.469Z,5.68
2022-12-25T08:11:39.387Z,5.38
2022-12-25T08:14:08.035Z,5.03
2022-12-25T08:16:35.799Z,4.40
2022-12-25T08:19:03.073Z,5.50
2022-12-25T08:21:30.254Z,4.32
2022-12-25T08:23:57.522Z,7.13
2022-12-25T08:26:24.636Z,4.97
2022-12-25T08:28:51.863Z,4.40
2022-12-25T08:31:29.193Z,4.75
2022-12-25T08:33:58.486Z,4.57
2022-12-25T08:36:26.552Z,6.03
2022-12-25T08:39:00.286Z,4.60
2022-12-25T08:41:31.151Z,5.40
2022-12-25T08:43:58.468Z,3.63
2022-12-25T08:46:25.665Z,3.58
2022-12-25T08:48:52.896Z,3.50
2022-12-25T08:51:23.300Z,3.58
2022-12-25T08:53:52.531Z,3.03
2022-12-25T08:56:20.574Z,3.28
2022-12-25T08:58:47.740Z,4.30
2022-12-25T09:01:15.082Z,3.25
2022-12-25T09:03:42.934Z,4.13
2022-12-25T09:06:13.894Z,3.97
2022-12-25T09:08:48.104Z,3.53
2022-12-25T09:11:19.219Z,6.20
2022-12-25T09:13:47.809Z,4.28
2022-12-25T09:16:19.971Z,4.93
2022-12-25T09:18:47.842Z,3.20
2022-12-25T09:21:16.171Z,3.92
2022-12-25T09:23:43.869Z,2.50
2022-12-25T09:26:14.564Z,3.33
2022-12-25T09:28:48.481Z,2.47
2022-12-25T09:31:19.028Z,3.65
2022-12-25T09:33:49.611Z,3.13
2022-12-25T09:36:17.299Z,3.05
2022-12-25T09:38:44.451Z,2.95
2022-12-25T09:41:35.769Z,3.38
2022-12-25T09:44:27.452Z,3.55
2022-12-25T09:47:22.608Z,7.32
2022-12-25T09:50:09.909Z,5.55
2022-12-25T09:53:06.743Z,7.78
2022-12-25T09:55:40.756Z,9.20
2022-12-25T09:58:12.887Z,11.05
2022-12-25T10:00:46.243Z,9.07
2022-12-25T10:04:02.413Z,8.52
2022-12-25T10:06:49.439Z,8.50
2022-12-25T10:10:03.305Z,6.63
2022-12-25T10:12:43.154Z,8.55
2022-12-25T10:15:40.425Z,7.40
2022-12-25T10:18:38.470Z,11.38
2022-12-25T10:21:13.223Z,12.80
2022-12-25T10:23:47.531Z,10.90
2022-12-25T10:26:24.518Z,11.63
2022-12-25T10:29:16.616Z,7.65
2022-12-25T10:31:51.526Z,13.52
2022-12-25T10:34:18.929Z,7.07
2022-12-25T10:36:46.338Z,6.35
2022-12-25T10:39:25.529Z,7.78
2022-12-25T10:42:45.085Z,8.18
2022-12-25T10:45:12.449Z,7.68
2022-12-25T10:47:44.449Z,6.93
2022-12-25T10:50:24.939Z,6.10
2022-12-25T10:53:05.675Z,5.85
2022-12-25T10:55:33.238Z,6.97
2022-12-25T10:58:01.634Z,3.45
2022-12-25T11:00:31.924Z,2.50
2022-12-25T11:02:59.743Z,3.67
2022-12-25T11:05:33.659Z,3.85
2022-12-25T11:08:03.112Z,4.13
2022-12-25T11:13:24.557Z,3.80
2022-12-25T11:16:11.225Z,2.17
2022-12-25T11:18:48.738Z,2.95
2022-12-25T11:21:19.287Z,10.80
2022-12-25T11:23:49.841Z,8.93
2022-12-25T11:26:18.246Z,9.15
2022-12-25T11:28:48.318Z,4.32
2022-12-25T11:31:23.564Z,2.67
2022-12-25T11:34:31.956Z,2.92
2022-12-25T11:37:00.866Z,3.00
2022-12-25T11:39:35.831Z,2.03
2022-12-25T11:42:12.193Z,6.18
2022-12-25T11:45:24.360Z,5.45
2022-12-25T11:48:01.745Z,7.47
2022-12-25T11:50:35.633Z,8.88
2022-12-25T11:53:09.960Z,6.78
2022-12-25T11:55:40.569Z,7.65
2022-12-25T11:58:30.950Z,6.78
2022-12-25T12:01:02.305Z,5.85
2022-12-25T12:03:40.043Z,5.68
2022-12-25T12:06:31.710Z,7.20
2022-12-25T12:09:29.595Z,3.15
2022-12-25T12:12:49.321Z,6.80
2022-12-25T12:15:43.351Z,8.98
2022-12-25T12:18:25.530Z,7.65
2022-12-25T12:21:20.011Z,9.57
2022-12-25T12:24:08.849Z,2.75
2022-12-25T12:26:40.366Z,2.85
2022-12-25T12:29:27.623Z,2.10
2022-12-25T12:32:01.088Z,2.08
2022-12-25T12:34:44.517Z,2.60
2022-12-25T12:37:31.530Z,2.72
2022-12-25T12:39:59.144Z,2.10
2022-12-25T12:42:31.786Z,2.55
2022-12-25T12:45:14.784Z,4.72
2022-12-25T12:47:51.089Z,4.70
2022-12-25T12:50:34.525Z,4.63
2022-12-25T12:53:22.820Z,4.55
2022-12-25T12:55:51.537Z,11.20
2022-12-25T12:58:50.194Z,10.68
2022-12-25T13:01:26.757Z,4.25
2022-12-25T13:04:43.028Z,6.72
2022-12-25T13:07:43.112Z,5.85
2022-12-25T13:10:34.763Z,7.40
2022-12-25T13:13:19.657Z,7.72
2022-12-25T13:15:49.687Z,8.60
2022-12-25T13:18:17.790Z,9.50
2022-12-25T13:20:56.379Z,3.65
2022-12-25T13:23:34.381Z,4.00
2022-12-25T13:26:05.957Z,4.53
2022-12-25T13:28:35.895Z,2.97
2022-12-25T13:31:17.911Z,4.05
2022-12-25T13:33:57.358Z,3.63
2022-12-25T13:36:28.093Z,2.88
2022-12-25T13:38:58.668Z,3.42
2022-12-25T13:42:04.901Z,2.50
2022-12-25T13:44:55.453Z,2.75
2022-12-25T13:47:30.357Z,3.45
2022-12-25T13:50:00.200Z,2.78
2022-12-25T13:52:38.213Z,3.28
2022-12-25T13:55:20.615Z,2.00
2022-12-25T13:57:58.702Z,3.00
2022-12-25T14:00:36.545Z,2.97
2022-12-25T14:03:14.176Z,2.45
2022-12-25T14:05:43.458Z,2.80
2022-12-25T14:08:25.753Z,3.30
2022-12-25T14:10:54.633Z,4.75
2022-12-25T14:13:28.161Z,6.50
2022-12-25T14:15:57.248Z,6.20
2022-12-25T14:18:25.553Z,3.28
2022-12-25T14:20:58.686Z,3.78
2022-12-25T14:23:26.780Z,3.58
2022-12-25T14:25:54.131Z,3.08
2022-12-25T14:28:33.574Z,3.97
2022-12-25T14:31:02.387Z,4.00
2022-12-25T14:33:36.756Z,3.97
2022-12-25T14:36:06.050Z,3.85
2022-12-25T14:38:40.390Z,3.92
2022-12-25T14:41:32.770Z,3.90
2022-12-25T14:44:03.729Z,4.53
2022-12-25T14:46:33.664Z,4.95
2022-12-25T14:49:23.030Z,4.50
2022-12-25T14:54:21.858Z,5.35
2022-12-25T14:56:53.302Z,5.45
2022-12-25T14:59:25.428Z,5.53
2022-12-25T15:02:00.507Z,9.88
2022-12-25T15:04:29.185Z,12.90
2022-12-25T15:07:06.423Z,21.90
2022-12-25T15:09:35.389Z,22.42
2022-12-25T15:12:03.070Z,14.95
2022-12-25T15:14:30.949Z,9.63
2022-12-25T15:17:01.012Z,9.52
2022-12-25T15:19:37.674Z,10.82
2022-12-25T15:22:06.454Z,12.48
2022-12-25T15:24:33.646Z,15.43
2022-12-25T15:27:01.102Z,13.77
2022-12-25T15:32:19.744Z,16.35
2022-12-25T15:34:49.141Z,24.20
2022-12-25T15:39:45.596Z,25.23
2022-12-25T15:42:21.642Z,22.48
2022-12-25T15:44:48.976Z,25.20
2022-12-25T15:47:19.509Z,18.92
2022-12-25T15:49:46.704Z,16.55
2022-12-25T15:52:16.635Z,19.65
2022-12-25T15:54:44.095Z,19.17
2022-12-25T15:57:21.710Z,17.63
2022-12-25T15:59:48.898Z,21.80
2022-12-25T16:02:20.364Z,20.45
2022-12-25T16:04:50.370Z,22.45
2022-12-25T16:07:24.281Z,19.55
2022-12-25T16:09:52.042Z,17.73
2022-12-25T16:12:19.631Z,16.23
2022-12-25T16:14:46.755Z,16.08
2022-12-25T16:17:15.580Z,17.27
2022-12-25T16:19:44.130Z,13.82
2022-12-25T16:22:14.052Z,14.93
2022-12-25T16:24:41.350Z,19.08
2022-12-25T16:27:08.696Z,16.98
2022-12-25T16:29:35.991Z,19.73
2022-12-25T16:32:03.410Z,16.10
2022-12-25T16:34:30.580Z,16.63
2022-12-25T16:36:57.740Z,16.10
2022-12-25T16:39:24.878Z,13.18
2022-12-25T16:41:52.167Z,13.27
2022-12-25T16:44:19.458Z,11.90
2022-12-25T16:46:47.662Z,23.20
2022-12-25T16:49:14.952Z,26.35
2022-12-25T16:51:42.128Z,25.30
2022-12-25T16:54:09.318Z,22.85
2022-12-25T16:56:36.678Z,14.57
2022-12-25T16:59:03.942Z,14.90
2022-12-25T17:01:31.336Z,12.68
2022-12-25T17:04:02.388Z,13.93
2022-12-25T17:06:29.631Z,14.13
2022-12-25T17:08:59.536Z,10.95
2022-12-25T17:11:29.174Z,14.25
2022-12-25T17:14:01.940Z,14.50
2022-12-25T17:16:35.054Z,12.40
2022-12-25T17:19:19.027Z,10.45
2022-12-25T17:21:46.665Z,11.18
2022-12-25T17:24:15.066Z,10.00
2022-12-25T17:26:43.385Z,10.05
2022-12-25T17:29:17.241Z,8.38
2022-12-25T17:31:48.785Z,7.70
2022-12-25T17:34:16.096Z,9.32
2022-12-25T17:36:43.336Z,10.43
2022-12-25T17:39:11.281Z,11.80
2022-12-25T17:41:38.569Z,11.57
2022-12-25T17:44:05.775Z,12.20
2022-12-25T17:46:33.197Z,10.98
2022-12-25T17:49:01.057Z,14.68
2022-12-25T17:51:30.335Z,12.63
2022-12-25T17:54:03.959Z,13.77
2022-12-25T17:56:32.344Z,13.63
2022-12-25T17:59:05.941Z,16.60
2022-12-25T18:01:37.877Z,17.73
2022-12-25T18:04:06.410Z,15.77
2022-12-25T18:06:35.675Z,15.52
2022-12-25T18:09:05.561Z,17.67
2022-12-25T18:11:32.795Z,21.58
2022-12-25T18:14:05.017Z,28.38
2022-12-25T18:16:37.741Z,22.27
2022-12-25T18:19:05.872Z,17.50
2022-12-25T18:21:33.039Z,15.27
2022-12-25T18:24:03.917Z,17.90
2022-12-25T18:26:31.241Z,24.27
2022-12-25T18:28:59.590Z,20.90
2022-12-25T18:31:29.653Z,22.40
2022-12-25T18:33:59.149Z,23.38
2022-12-25T18:36:28.336Z,22.25
2022-12-25T18:38:57.179Z,19.30
2022-12-25T18:41:24.911Z,22.35
2022-12-25T18:43:55.567Z,22.17
2022-12-25T18:46:26.102Z,22.90
2022-12-25T18:48:55.776Z,20.95
2022-12-25T18:51:23.135Z,19.20
2022-12-25T18:53:51.166Z,16.08
2022-12-25T18:56:20.496Z,22.00
2022-12-25T18:58:47.983Z,28.27
2022-12-25T19:01:23.907Z,31.48
2022-12-25T19:03:53.937Z,25.67
2022-12-25T19:06:27.085Z,27.95
2022-12-25T19:08:55.243Z,27.50
2022-12-25T19:11:23.004Z,22.25
2022-12-25T19:13:50.321Z,17.30
2022-12-25T19:16:17.937Z,16.65
2022-12-25T19:18:45.834Z,14.65
2022-12-25T19:21:13.071Z,14.00
2022-12-25T19:23:40.348Z,17.10
2022-12-25T19:26:09.704Z,30.10
2022-12-25T19:28:38.491Z,38.40
2022-12-25T19:31:07.507Z,33.80
2022-12-25T19:33:37.890Z,37.25
2022-12-25T19:36:10.154Z,29.48
2022-12-25T19:38:37.660Z,24.42
2022-12-25T19:41:07.578Z,17.55
2022-12-25T19:43:38.468Z,18.15
2022-12-25T19:46:08.015Z,18.23
2022-12-25T19:48:35.716Z,18.35
2022-12-25T19:51:03.177Z,17.63
2022-12-25T19:53:31.867Z,15.48
2022-12-25T19:56:02.549Z,15.90
2022-12-25T19:58:29.836Z,17.00
2022-12-25T20:01:05.501Z,26.23
2022-12-25T20:03:38.753Z,28.88
2022-12-25T20:06:18.137Z,26.38
2022-12-25T20:08:47.354Z,23.08
2022-12-25T20:11:16.990Z,15.57
2022-12-25T20:16:11.786Z,11.68
2022-12-25T20:18:40.088Z,12.18
2022-12-25T20:21:17.624Z,16.10
2022-12-25T20:23:47.934Z,16.88
2022-12-25T20:26:17.833Z,23.20
2022-12-25T20:28:45.415Z,25.10
2022-12-25T20:31:17.497Z,22.73
2022-12-25T20:33:45.675Z,23.48
2022-12-25T20:36:17.789Z,26.40
2022-12-25T20:38:45.044Z,24.25
2022-12-25T20:41:31.456Z,27.98
2022-12-25T20:43:58.895Z,30.35
2022-12-25T20:46:28.612Z,30.77
2022-12-25T20:48:56.026Z,25.05
2022-12-25T20:51:26.268Z,22.92
2022-12-25T20:53:54.496Z,24.42
2022-12-25T20:56:25.627Z,18.55
2022-12-25T20:58:58.949Z,19.92
2022-12-25T21:01:29.499Z,22.15
2022-12-25T21:03:58.348Z,27.55
2022-12-25T21:06:30.576Z,30.67
2022-12-25T21:09:06.323Z,48.85
2022-12-25T21:11:44.381Z,39.15
2022-12-25T21:14:17.505Z,42.95
2022-12-25T21:16:44.849Z,32.38
2022-12-25T21:19:12.333Z,22.55
2022-12-25T21:21:42.150Z,27.92
2022-12-25T21:24:10.345Z,26.45
2022-12-25T21:26:40.751Z,28.90
2022-12-25T21:29:10.234Z,35.97
2022-12-25T21:31:56.353Z,54.78
2022-12-25T21:34:23.508Z,48.72
2022-12-25T21:36:50.755Z,36.25
2022-12-25T21:39:17.871Z,24.98
2022-12-25T21:41:45.186Z,19.58
2022-12-25T21:44:12.354Z,23.55
2022-12-25T21:46:39.602Z,32.90
2022-12-25T21:49:06.799Z,31.50
2022-12-25T21:51:53.087Z,27.42
2022-12-25T21:54:22.493Z,25.80
2022-12-25T21:56:50.442Z,29.15
2022-12-25T21:59:21.027Z,27.52
2022-12-25T22:01:49.947Z,27.85
2022-12-25T22:04:19.989Z,32.05
2022-12-25T22:07:06.135Z,32.95
2022-12-25T22:09:33.373Z,29.90
2022-12-25T22:12:19.474Z,31.77
2022-12-25T22:14:51.277Z,28.40
2022-12-25T22:17:43.579Z,33.80
2022-12-25T22:20:25.685Z,29.95
2022-12-25T22:22:53.639Z,37.45
2022-12-25T22:25:21.492Z,31.10
2022-12-25T22:27:49.899Z,38.33
2022-12-25T22:30:28.300Z,35.33
2022-12-25T22:32:56.163Z,29.55
2022-12-25T22:35:23.908Z,31.10
2022-12-25T22:37:52.758Z,26.77
2022-12-25T22:40:20.559Z,20.27
2022-12-25T22:42:47.834Z,8.77
2022-12-25T22:45:15.066Z,11.35
2022-12-25T22:47:42.268Z,14.93
2022-12-25T22:50:11.406Z,16.77
2022-12-25T22:52:38.509Z,20.38
2022-12-25T22:55:07.743Z,24.27
2022-12-25T22:57:36.163Z,26.80
2022-12-25T23:00:08.269Z,29.90
2022-12-25T23:02:35.675Z,32.47
2022-12-25T23:05:03.657Z,34.80
2022-12-25T23:07:30.852Z,35.60
2022-12-25T23:09:58.163Z,38.72
2022-12-25T23:12:44.132Z,53.92
2022-12-25T23:15:11.378Z,48.42
2022-12-25T23:17:57.340Z,40.28
2022-12-25T23:20:43.343Z,39.25
2022-12-25T23:23:34.326Z,42.72
2022-12-25T23:26:08.654Z,38.83
2022-12-25T23:28:57.516Z,47.05
2022-12-25T23:31:37.270Z,35.80
2022-12-25T23:34:05.947Z,25.77
2022-12-25T23:36:33.822Z,26.38
2022-12-25T23:39:08.528Z,24.90
2022-12-25T23:41:41.235Z,23.90
2022-12-25T23:44:10.448Z,27.80
2022-12-25T23:46:38.292Z,28.98
2022-12-25T23:49:06.260Z,29.60
2022-12-25T23:51:36.778Z,27.75
2022-12-25T23:54:05.953Z,22.67
2022-12-25T23:56:33.548Z,21.90
2022-12-25T23:59:00.859Z,25.85
